Latest Weather Observations for Sheffield

IDT60801

Issued at 8:03 pm EDT Friday 30 January 2015 (issued every 30 minutes, with the page automatically refreshed every 10 minutes)

About weather observations | Map of weather stations | Latest weather observations for TAS | Other Formats
Station Details ID: 091291 Name: SHEFFIELD SCHOOL FARM Lat: -41.39 Lon: 146.32 Height: 294.2 m
Data from the previous 72 hours. | See also: Recent months at Sheffield
Date/Time
EDT
Temp
°C
App
Temp
°C
Dew
Point
Rel
Hum
%
Delta-T
°C
Wind Press
QNH
hPa
Press
MSL
hPa
Rain
since 9 am
mm
Dir
 
Spd
km/h
Gust
km/h
Spd
kts
Gust
kts
30/08:00pm 17.0 12.5 4.3 43 6.1 SE 17 22 9 12 1012.2 1011.6 0.0
30/07:30pm 17.3 13.7 4.9 44 6.0 SSE 13 19 7 10 1012.2 1011.6 0.0
30/07:00pm 17.9 13.9 4.8 42 6.4 SE 15 28 8 15 1012.3 1011.7 0.0
30/06:30pm 17.7 13.5 5.9 46 5.9 ESE 17 20 9 11 1012.3 1011.7 0.0
30/06:00pm 17.5 12.4 6.1 47 5.7 ESE 22 30 12 16 1012.4 1011.8 0.0
30/05:30pm 18.3 13.9 6.5 46 6.0 E 19 28 10 15 1012.6 1012.0 0.0
30/05:00pm 19.6 15.2 6.4 42 6.7 SE 19 28 10 15 1012.8 1012.2 0.0
30/04:30pm 20.1 15.7 6.5 41 6.9 SSE 19 28 10 15 1012.9 1012.3 0.0
30/04:00pm 20.9 17.7 6.8 40 7.3 SSE 13 22 7 12 1013.1 1012.5 0.0
30/03:30pm 19.2 14.9 5.3 40 6.9 ESE 17 22 9 12 1013.5 1012.9 0.0
30/03:00pm 19.3 14.1 5.7 41 6.8 SE 22 39 12 21 1013.7 1013.1 0.0
30/02:30pm 19.0 14.2 5.8 42 6.6 SE 20 32 11 17 1014.0 1013.4 0.0
30/02:00pm 18.1 14.7 5.7 44 6.1 SE 13 20 7 11 1014.6 1014.0 0.0
30/01:30pm 17.9 14.2 6.4 47 5.8 E 15 22 8 12 1014.8 1014.2 0.0
30/01:00pm 17.1 13.0 4.4 43 6.1 SE 15 24 8 13 1015.1 1014.6 0.0
30/12:30pm 17.2 12.8 4.5 43 6.1 SE 17 24 9 13 1015.3 1014.8 0.0
30/12:00pm 17.1 13.5 5.1 45 5.8 ESE 13 20 7 11 1015.6 1015.0 0.0
30/11:30am 16.2 13.9 4.9 47 5.4 W 6 19 3 10 1015.8 1015.2 0.0
30/11:00am 16.9 15.4 5.2 46 5.7 N 2 9 1 5 1016.0 1015.4 0.0
30/10:30am 14.1 12.2 4.7 53 4.4 SSW 4 9 2 5 1016.3 1015.7 0.0
30/10:00am 14.0 12.4 4.3 52 4.5 ESE 2 6 1 3 1016.5 1015.9 0.0
30/09:30am 14.0 11.0 4.3 52 4.5 SE 9 13 5 7 1016.6 1016.0 0.0
30/09:00am 14.0 11.0 4.3 52 4.5 SE 9 19 5 10 1016.6 1016.0 0.0
30/08:30am 13.2 11.5 3.8 53 4.3 SE 2 6 1 3 1016.8 1016.2 0.0
30/08:00am 11.7 10.3 3.7 58 3.6 CALM 0 0 0 0 1016.8 1016.2 0.0
30/07:30am 10.3 8.5 3.6 63 3.0 NW 2 4 1 2 1016.8 1016.2 0.0
30/07:00am 10.3 6.7 3.1 61 3.2 SSE 11 15 6 8 1016.8 1016.2 0.0
30/06:30am 9.8 7.1 2.9 62 3.0 WSW 6 6 3 3 1017.0 1016.4 0.0
30/05:30am 10.3 6.7 2.7 59 3.3 SSE 11 15 6 8 1017.2 1016.6 0.0
30/05:00am 10.7 6.7 2.8 58 3.5 SSE 13 19 7 10 1017.2 1016.6 0.0
30/04:30am 10.7 5.9 2.5 57 3.6 SSE 17 22 9 12 1017.3 1016.7 0.0
30/04:00am 10.8 6.4 2.6 57 3.6 SE 15 19 8 10 1017.7 1017.1 0.0
30/03:30am 11.0 6.6 2.8 57 3.6 SE 15 24 8 13 1018.1 1017.6 0.0
30/03:00am 10.9 7.7 3.2 59 3.4 SSE 9 13 5 7 1018.4 1017.9 0.0
30/02:30am 11.4 7.8 2.9 56 3.8 S 11 15 6 8 1018.6 1018.1 0.0
30/02:00am 11.3 8.1 2.9 56 3.7 S 9 15 5 8 1019.2 1018.6 0.0
30/01:30am 11.4 7.7 2.4 54 3.9 S 11 20 6 11 1019.4 1018.8 0.0
30/01:00am 11.3 6.8 2.3 54 3.9 S 15 19 8 10 1019.8 1019.2 0.0
30/12:30am 10.8 6.3 2.1 55 3.8 SSE 15 22 8 12 1020.2 1019.6 0.0
30/12:00am 11.2 6.3 2.0 53 4.0 SE 17 26 9 14 1020.3 1019.7 0.0
 
Date/Time
EDT
Temp
°C
App
Temp
°C
Dew
Point
Rel
Hum
%
Delta-T
°C
Wind Press
QNH
hPa
Press
MSL
hPa
Rain
since 9 am
mm
Dir
 
Spd
km/h
Gust
km/h
Spd
kts
Gust
kts
29/11:30pm 11.6 4.5 1.5 50 4.3 SE 28 35 15 19 1020.2 1019.6 0.0
29/11:00pm 12.3 5.7 2.2 50 4.4 SE 26 39 14 21 1020.3 1019.7 0.0
29/10:30pm 12.6 6.5 2.7 51 4.4 SE 24 32 13 17 1020.4 1019.8 0.0
29/10:00pm 12.5 7.3 2.7 51 4.3 SE 19 26 10 14 1020.4 1019.8 0.0
29/09:30pm 13.2 8.0 2.4 48 4.8 SE 19 26 10 14 1020.2 1019.6 0.0
29/09:00pm 13.7 8.8 2.3 46 5.1 SE 17 24 9 13 1020.0 1019.4 0.0
29/08:30pm 14.4 9.5 2.0 43 5.5 SE 17 22 9 12 1019.8 1019.2 0.0
29/08:00pm 15.7 10.3 1.4 38 6.3 ESE 19 24 10 13 1019.8 1019.2 0.0
29/07:30pm 16.4 10.4 1.3 36 6.7 SE 22 30 12 16 1019.6 1019.0 0.0
29/07:00pm 17.0 10.7 1.8 36 6.9 SE 24 30 13 16 1019.5 1018.9 0.0
29/06:30pm 16.5 10.0 2.5 39 6.4 SE 26 35 14 19 1019.6 1019.0 0.0
29/06:00pm 17.2 10.7 2.8 38 6.7 ESE 26 35 14 19 1019.6 1019.0 0.0
29/05:30pm 17.7 11.7 3.2 38 6.8 SE 24 39 13 21 1019.7 1019.1 0.0
29/05:00pm 19.4 13.4 3.6 35 7.6 SE 24 37 13 20 1019.9 1019.3 0.0
29/04:30pm 19.6 13.7 4.1 36 7.5 SSE 24 33 13 18 1020.1 1019.5 0.0
29/04:00pm 19.9 14.7 3.6 34 7.8 SE 20 35 11 19 1020.2 1019.6 0.0
29/03:30pm 20.1 15.0 4.2 35 7.8 ESE 20 32 11 17 1020.5 1019.9 0.0
29/03:00pm 20.8 15.6 3.5 32 8.3 SSE 20 30 11 16 1020.6 1020.0 0.0
29/02:30pm 19.5 16.0 3.6 35 7.6 SE 11 20 6 11 1020.9 1020.4 0.0
29/02:00pm 18.9 14.6 3.1 35 7.5 ESE 15 20 8 11 1021.2 1020.7 0.0
29/01:30pm 19.5 16.1 4.0 36 7.5 SE 11 26 6 14 1021.5 1021.0 0.0
29/01:00pm 18.1 13.5 3.9 39 6.8 SSE 17 26 9 14 1021.8 1021.3 0.0
29/12:30pm 18.7 14.3 4.8 40 6.8 SE 17 26 9 14 1022.1 1021.6 0.0
29/12:00pm 17.7 14.0 4.3 41 6.4 SE 13 20 7 11 1022.4 1021.9 0.0
29/11:30am 16.2 11.1 3.9 44 5.8 SSE 20 32 11 17 1022.9 1022.3 0.0
29/11:00am 16.6 11.5 4.3 44 5.8 SSE 20 32 11 17 1022.9 1022.3 0.0
29/10:30am 16.3 10.8 4.0 44 5.8 ESE 22 32 12 17 1023.0 1022.4 0.0
29/10:00am 15.3 9.6 2.8 43 5.7 SE 22 33 12 18 1023.0 1022.4 0.0
29/09:30am 14.5 10.2 3.0 46 5.2 SE 15 22 8 12 1023.0 1022.4 0.0
29/09:00am 13.6 10.1 3.4 50 4.6 SSE 11 19 6 10 1023.1 1022.5 0.0
29/08:30am 11.9 9.8 3.9 58 3.6 SSW 4 7 2 4 1023.0 1022.4 0.0
29/08:00am 10.4 8.8 4.5 67 2.7 S 2 4 1 2 1022.9 1022.3 0.0
29/07:30am 9.3 8.0 4.1 70 2.3 CALM 0 0 0 0 1022.7 1022.1 0.0
29/07:00am 7.5 5.2 3.0 73 1.9 SSE 4 6 2 3 1022.4 1021.9 0.0
29/06:30am 6.6 4.6 2.5 75 1.7 WNW 2 4 1 2 1022.4 1021.9 0.0
29/06:00am 6.1 3.1 2.0 75 1.7 SSE 7 9 4 5 1022.3 1021.8 0.0
29/05:30am 7.3 3.9 2.0 69 2.2 WSW 9 11 5 6 1022.1 1021.6 0.0
29/05:00am 7.3 5.0 2.8 73 1.9 NW 4 6 2 3 1022.2 1021.7 0.0
29/04:30am 5.6 3.2 2.1 78 1.4 NNW 4 7 2 4 1022.2 1021.7 0.0
29/04:00am 7.7 4.4 2.4 69 2.2 S 9 11 5 6 1022.0 1021.5 0.0
29/03:30am 7.8 5.1 2.5 69 2.3 SSE 6 7 3 4 1022.3 1021.8 0.0
29/03:00am 6.9 4.3 3.3 78 1.5 E 6 9 3 5 1022.7 1022.1 0.0
29/02:30am 7.9 5.6 3.0 71 2.1 NW 4 4 2 2 1022.8 1022.2 0.0
29/02:00am 8.0 6.2 3.5 73 2.0 NW 2 4 1 2 1022.9 1022.3 0.0
29/01:30am 8.8 6.0 3.2 68 2.4 SSE 7 11 4 6 1022.9 1022.3 0.0
29/01:00am 8.2 5.1 3.5 72 2.0 SE 9 11 5 6 1023.3 1022.7 0.0
29/12:30am 8.3 4.4 3.4 71 2.1 SE 13 15 7 8 1023.4 1022.8 0.0
29/12:00am 8.7 4.4 3.3 69 2.3 SE 15 19 8 10 1023.5 1022.9 0.0
 
Date/Time
EDT
Temp
°C
App
Temp
°C
Dew
Point
Rel
Hum
%
Delta-T
°C
Wind Press
QNH
hPa
Press
MSL
hPa
Rain
since 9 am
mm
Dir
 
Spd
km/h
Gust
km/h
Spd
kts
Gust
kts
28/11:30pm 9.7 4.5 3.4 65 2.8 SE 20 24 11 13 1023.3 1022.7 0.0
28/11:00pm 10.6 5.0 3.2 60 3.3 SE 22 33 12 18 1023.5 1022.9 0.0
28/10:30pm 11.2 4.4 3.0 57 3.6 ESE 28 33 15 18 1023.4 1022.8 0.0
28/10:00pm 11.9 5.0 2.6 53 4.1 ESE 28 35 15 19 1023.3 1022.7 0.0
28/09:30pm 12.3 6.2 2.5 51 4.3 ESE 24 33 13 18 1023.1 1022.5 0.0
28/09:00pm 12.8 7.0 2.4 49 4.6 E 22 30 12 16 1022.8 1022.2 0.0
28/08:30pm 13.5 8.3 2.4 47 5.0 E 19 26 10 14 1022.5 1022.0 0.0
28/08:00pm 14.7 9.5 2.6 44 5.5 E 19 28 10 15 1022.2 1021.7 0.0
28/07:30pm 15.5 10.1 2.7 42 5.8 E 20 30 11 16 1021.9 1021.4 0.0
28/07:00pm 16.3 9.4 2.3 39 6.4 E 28 37 15 20 1021.4 1020.9 0.0
28/06:30pm 16.8 9.9 2.8 39 6.5 E 28 39 15 21 1021.0 1020.5 0.0
28/06:00pm 17.7 10.5 3.2 38 6.8 ESE 30 41 16 22 1020.7 1020.1 0.0
28/05:30pm 19.8 14.7 3.9 35 7.7 ESE 20 33 11 18 1020.5 1019.9 0.0
28/05:00pm 19.7 13.0 3.4 34 7.8 ESE 28 35 15 19 1020.6 1020.0 0.0
28/04:30pm 20.0 14.4 3.3 33 8.0 ESE 22 32 12 17 1020.7 1020.1 0.0
28/04:00pm 20.9 16.5 4.5 34 8.1 ESE 17 30 9 16 1020.7 1020.1 0.0
28/03:30pm 20.5 15.4 3.3 32 8.3 ESE 19 37 10 20 1020.8 1020.3 0.0
28/03:00pm 19.8 15.5 3.1 33 7.9 ESE 15 26 8 14 1021.0 1020.5 0.0
28/02:30pm 20.3 15.5 4.8 36 7.7 ESE 19 32 10 17 1021.2 1020.7 0.0
28/02:00pm 19.5 14.5 4.8 38 7.2 ESE 20 32 11 17 1021.3 1020.8 0.0
28/01:30pm 19.5 14.9 5.6 40 6.9 ESE 19 30 10 16 1021.7 1021.2 0.0
28/01:00pm 17.8 13.3 4.4 41 6.4 E 17 30 9 16 1021.8 1021.3 0.0
28/12:30pm 17.3 13.1 3.6 40 6.5 E 15 22 8 12 1021.9 1021.4 0.0
28/12:00pm 16.7 14.0 2.7 39 6.4 SE 6 15 3 8 1022.0 1021.5 0.0
28/11:30am 17.3 13.9 3.9 41 6.4 E 11 20 6 11 1022.0 1021.5 0.0
28/11:00am 16.6 12.3 3.0 40 6.3 SE 15 22 8 12 1022.3 1021.8 0.0
28/10:30am 15.9 11.2 3.4 43 5.8 ESE 17 24 9 13 1022.4 1021.9 0.0
28/10:00am 15.3 11.9 5.8 53 4.6 ESE 13 20 7 11 1022.5 1022.0 0.0
28/09:30am 13.6 10.4 5.3 57 3.9 ESE 11 20 6 11 1022.5 1022.0 0.0
28/09:00am 13.4 9.6 6.0 61 3.6 ESE 15 19 8 10 1022.3 1021.8 0.0
28/08:30am 11.9 9.1 6.8 71 2.5 SE 11 15 6 8 1022.1 1021.6 0.0
28/08:00am 10.6 7.0 6.9 78 1.8 ESE 15 19 8 10 1021.6 1021.1 0.0
28/07:30am 9.6 7.6 7.2 85 1.2 SE 7 11 4 6 1021.3 1020.8 0.0
28/07:00am 8.5 5.7 6.8 89 0.8 SE 11 11 6 6 1020.9 1020.4 0.0
28/06:30am 7.5 4.1 6.1 91 0.6 SE 13 17 7 9 1020.7 1020.1 0.0
28/06:00am 7.5 3.4 6.1 91 0.6 SE 17 19 9 10 1020.6 1020.0 0.0
28/05:30am 7.7 5.6 6.0 89 0.8 S 6 7 3 4 1020.4 1019.8 0.0
28/05:00am 7.8 5.6 6.1 89 0.8 SE 7 9 4 5 1020.1 1019.5 0.0
28/04:30am 7.8 5.5 5.8 87 0.9 SE 7 11 4 6 1020.1 1019.5 0.0
28/04:00am 8.5 5.5 6.0 84 1.2 ESE 11 13 6 7 1020.1 1019.5 0.0
28/03:30am 9.1 5.8 6.2 82 1.4 SE 13 15 7 8 1020.1 1019.5 0.0
28/03:00am 9.5 6.6 6.6 82 1.4 SE 11 15 6 8 1020.3 1019.7 0.0
28/02:30am 9.3 6.7 6.2 81 1.5 SE 9 11 5 6 1020.3 1019.7 0.0
28/02:00am 10.1 7.9 6.4 78 1.7 SE 7 11 4 6 1020.5 1019.9 0.0
28/01:30am 10.3 8.2 6.5 77 1.8 ESE 7 9 4 5 1020.5 1019.9 0.0
28/01:00am 10.8 8.3 6.6 75 2.0 ESE 9 11 5 6 1020.4 1019.8 0.0
28/12:30am 11.9 8.7 7.0 72 2.4 SE 13 17 7 9 1020.4 1019.8 0.0
28/12:00am 12.6 9.1 7.3 70 2.6 SE 15 22 8 12 1020.2 1019.6 0.0
 
Date/Time
EDT
Temp
°C
App
Temp
°C
Dew
Point
Rel
Hum
%
Delta-T
°C
Wind Press
QNH
hPa
Press
MSL
hPa
Rain
since 9 am
mm
Dir
 
Spd
km/h
Gust
km/h
Spd
kts
Gust
kts
27/11:30pm 12.9 9.8 7.4 69 2.7 ESE 13 17 7 9 1019.9 1019.3 0.0
27/11:00pm 12.8 8.9 7.0 68 2.8 E 17 24 9 13 1019.8 1019.2 0.0
27/10:30pm 12.2 10.2 6.9 70 2.6 ESE 7 13 4 7 1019.6 1019.0 0.0
27/10:00pm 13.6 11.2 6.9 64 3.3 E 9 11 5 6 1019.3 1018.7 0.0
27/09:30pm 13.7 11.2 6.6 62 3.5 E 9 15 5 8 1018.5 1018.0 0.0
27/09:00pm 14.6 13.3 6.2 57 4.1 SE 2 4 1 2 1018.0 1017.5 0.0
27/08:30pm 15.3 13.0 5.8 53 4.6 NE 7 13 4 7 1017.5 1016.9 0.0

Other Formats:

Comma delimited format used in spreadsheet applications
http://www.bom.gov.au/fwo/IDT60801/IDT60801.94955.axf

JavaScript Object Notation format (JSON) in row-major order
http://www.bom.gov.au/fwo/IDT60801/IDT60801.94955.json